Terminal Aerodrome Forecast
Issued by NWS Atlanta, GA

Home | Current Version | Previous Version | Text Only | Print | Product List | Glossary On
Versions: 1 2 3 4 5 6 7 8 9 10 11 12 13 14 15 16 17 18 19 20 21 22 23 24 25 26 27 28 29 30 31 32 33 34 35 36 37 38 39 40 41 42 43 44 45 46 47 48
000
FTUS42 KFFC 041137
TAFAHN
TAF
KAHN 041137Z 0412/0512 25007KT P6SM -SHRA OVC090
     FM041500 26010G17KT P6SM -SHRA SCT030 BKN050
     FM041800 26012G20KT P6SM -SHRA SCT035 BKN040
      TEMPO 0420/0424 4SM TSRA BR BKN025CB
     FM050000 28003KT P6SM -SHRA OVC040
     FM050900 27003KT P6SM BKN060 PROB30 0509/0512 -SHRA BKN040=

USA.gov is the U.S. government's official web portal to all federal, state and local government web resources and services.